Time;durP1;ratioP1;P1;durP2;ratioP2;P2;SDS_P1;SDS_P2;PMS_P1;PMS_P2;Temp;Humidity;BMP_temperature;BMP_pressure;BME280_temperature;BME280_humidity;BME280_pressure;Samples;Min_cycle;Max_cycle;Signal;HPM_P1;HPM_P2
2021/08/17 00:00:41;;;;;;;7.03;3.00;;;;;;;;;;6134863;23;20041;-70
2021/08/17 00:03:08;;;;;;;7.60;3.10;;;;;;;;;;6134502;23;20033;-68
2021/08/17 00:05:36;;;;;;;7.72;2.80;;;;;;;;;;6134988;23;19998;-69
2021/08/17 00:08:02;;;;;;;5.75;3.20;;;;;;;;;;6135232;23;20037;-70
2021/08/17 00:10:29;;;;;;;9.43;3.17;;;;;;;;;;6133351;23;20030;-69
2021/08/17 00:12:54;;;;;;;8.57;3.20;;;;;;;;;;6134564;23;19994;-69
2021/08/17 00:15:20;;;;;;;5.18;3.10;;;;;;;;;;6135133;23;20017;-69
2021/08/17 00:17:46;;;;;;;3.83;2.65;;;;;;;;;;6134768;23;20001;-69
2021/08/17 00:20:13;;;;;;;5.97;2.60;;;;;;;;;;6133060;23;20355;-68
2021/08/17 00:22:40;;;;;;;7.30;3.58;;;;;;;;;;6134895;23;20001;-69
2021/08/17 00:25:06;;;;;;;4.90;2.78;;;;;;;;;;6134657;23;20005;-70
2021/08/17 00:27:32;;;;;;;5.95;2.78;;;;;;;;;;6125943;23;20014;-69
2021/08/17 00:29:58;;;;;;;6.78;2.70;;;;;;;;;;6127895;23;19998;-70
2021/08/17 00:32:25;;;;;;;5.25;2.03;;;;;;;;;;6128235;23;20049;-69
2021/08/17 00:34:51;;;;;;;8.77;2.53;;;;;;;;;;6126123;23;20033;-69
2021/08/17 00:37:17;;;;;;;4.40;1.90;;;;;;;;;;6128379;23;20022;-69
2021/08/17 00:39:43;;;;;;;5.35;2.40;;;;;;;;;;6128069;23;20089;-69
2021/08/17 00:42:10;;;;;;;4.68;1.83;;;;;;;;;;6127857;23;19994;-69
2021/08/17 00:44:36;;;;;;;5.88;1.92;;;;;;;;;;6128485;23;20049;-69
2021/08/17 00:47:02;;;;;;;4.53;1.98;;;;;;;;;;6127809;23;20441;-70
2021/08/17 00:49:29;;;;;;;9.73;2.15;;;;;;;;;;6127691;23;20025;-70
2021/08/17 00:52:02;;;;;;;3.33;2.00;;;;;;;;;;6126533;23;20331;-70
2021/08/17 00:54:28;;;;;;;7.15;1.92;;;;;;;;;;6127931;23;20021;-70
2021/08/17 00:56:55;;;;;;;5.00;1.80;;;;;;;;;;6127553;23;20002;-69
2021/08/17 00:59:21;;;;;;;2.65;1.58;;;;;;;;;;6127782;23;20048;-70
2021/08/17 01:01:46;;;;;;;4.25;2.38;;;;;;;;;;6127589;23;20025;-69
2021/08/17 01:04:13;;;;;;;2.15;1.52;;;;;;;;;;6127896;23;20430;-69
2021/08/17 01:06:40;;;;;;;2.40;2.00;;;;;;;;;;6127746;23;20009;-70
2021/08/17 01:09:06;;;;;;;3.22;1.90;;;;;;;;;;6127618;23;20036;-69
2021/08/17 01:11:32;;;;;;;3.28;1.80;;;;;;;;;;6127837;23;20002;-70
2021/08/17 01:13:57;;;;;;;3.80;1.98;;;;;;;;;;6127255;23;20081;-69
2021/08/17 01:16:23;;;;;;;2.03;1.52;;;;;;;;;;6127650;23;20002;-70
2021/08/17 01:18:49;;;;;;;5.60;2.03;;;;;;;;;;6127432;23;19998;-69
2021/08/17 01:21:15;;;;;;;5.05;1.83;;;;;;;;;;6127457;23;20334;-69
2021/08/17 01:23:42;;;;;;;3.00;1.67;;;;;;;;;;6127488;23;19998;-69
2021/08/17 01:26:08;;;;;;;2.78;1.80;;;;;;;;;;6126283;23;20026;-70
2021/08/17 01:28:34;;;;;;;2.95;1.60;;;;;;;;;;6127136;23;20427;-69
2021/08/17 01:31:00;;;;;;;4.85;2.17;;;;;;;;;;6127580;23;20005;-70
2021/08/17 01:33:27;;;;;;;2.60;1.58;;;;;;;;;;6128083;23;20419;-69
2021/08/17 01:35:53;;;;;;;2.88;1.98;;;;;;;;;;6127748;23;20108;-69
2021/08/17 01:38:19;;;;;;;5.47;1.90;;;;;;;;;;6127592;23;20002;-70
2021/08/17 01:40:44;;;;;;;7.05;2.00;;;;;;;;;;6127347;23;20339;-69
2021/08/17 01:43:11;;;;;;;5.63;2.40;;;;;;;;;;6127027;23;19998;-69
2021/08/17 01:45:37;;;;;;;4.30;2.30;;;;;;;;;;6127207;23;20050;-69
2021/08/17 01:48:05;;;;;;;5.88;2.50;;;;;;;;;;6127555;23;20001;-70
2021/08/17 01:50:31;;;;;;;5.22;2.55;;;;;;;;;;6127992;23;20025;-70
2021/08/17 01:52:57;;;;;;;4.35;2.55;;;;;;;;;;6127408;23;20005;-70
2021/08/17 01:55:23;;;;;;;6.97;2.92;;;;;;;;;;6128142;23;20014;-70
2021/08/17 01:57:49;;;;;;;4.32;2.55;;;;;;;;;;6127168;23;19997;-69
2021/08/17 02:00:16;;;;;;;5.13;2.70;;;;;;;;;;6125560;23;20002;-70
2021/08/17 02:02:41;;;;;;;4.32;2.78;;;;;;;;;;6127917;23;20049;-70
2021/08/17 02:05:08;;;;;;;5.57;2.67;;;;;;;;;;6126931;23;20415;-69
2021/08/17 02:07:34;;;;;;;4.13;2.33;;;;;;;;;;6126959;23;20025;-69
2021/08/17 02:10:00;;;;;;;5.38;3.13;;;;;;;;;;6126911;23;20412;-69
2021/08/17 02:12:25;;;;;;;4.20;2.95;;;;;;;;;;6127412;23;20375;-70
2021/08/17 02:14:52;;;;;;;4.20;2.45;;;;;;;;;;6127017;23;20006;-69
2021/08/17 02:17:18;;;;;;;6.80;3.10;;;;;;;;;;6126904;23;20001;-70
2021/08/17 02:19:46;;;;;;;4.53;2.75;;;;;;;;;;6126972;23;20064;-69
2021/08/17 02:22:11;;;;;;;3.45;2.25;;;;;;;;;;6126834;23;19998;-69
2021/08/17 02:24:37;;;;;;;5.38;3.10;;;;;;;;;;6127191;23;20002;-69
2021/08/17 02:27:04;;;;;;;5.45;2.60;;;;;;;;;;6125129;23;20033;-69
2021/08/17 02:29:29;;;;;;;6.18;2.65;;;;;;;;;;6126881;23;20001;-70
2021/08/17 02:31:56;;;;;;;5.22;2.63;;;;;;;;;;6126553;23;20033;-69
2021/08/17 02:34:21;;;;;;;5.18;3.13;;;;;;;;;;6126787;23;20009;-69
2021/08/17 02:36:47;;;;;;;4.47;2.50;;;;;;;;;;6126990;23;20002;-70
2021/08/17 02:39:13;;;;;;;6.38;3.10;;;;;;;;;;6126710;23;20001;-70
2021/08/17 02:41:39;;;;;;;5.57;2.60;;;;;;;;;;6126758;23;20002;-70
2021/08/17 02:44:04;;;;;;;6.20;2.85;;;;;;;;;;6126833;23;20025;-69
2021/08/17 02:46:31;;;;;;;3.80;2.75;;;;;;;;;;6126794;23;20026;-69
2021/08/17 02:48:57;;;;;;;8.85;3.40;;;;;;;;;;6126427;23;20002;-70
2021/08/17 02:51:23;;;;;;;4.88;2.70;;;;;;;;;;6127139;23;19998;-69
2021/08/17 02:53:49;;;;;;;9.27;2.47;;;;;;;;;;6127253;23;20009;-70
2021/08/17 02:56:14;;;;;;;6.75;3.35;;;;;;;;;;6126488;23;20328;-70
2021/08/17 02:58:40;;;;;;;5.25;2.83;;;;;;;;;;6126758;23;20005;-70
2021/08/17 03:01:06;;;;;;;4.60;2.75;;;;;;;;;;6124945;23;20006;-70
2021/08/17 03:03:31;;;;;;;4.15;2.78;;;;;;;;;;6126884;23;20077;-69
2021/08/17 03:05:58;;;;;;;6.90;2.85;;;;;;;;;;6125186;23;20485;-69
2021/08/17 03:08:24;;;;;;;5.07;2.58;;;;;;;;;;6127018;23;20073;-70
2021/08/17 03:10:50;;;;;;;5.40;2.83;;;;;;;;;;6126628;23;20335;-71
2021/08/17 03:13:16;;;;;;;5.65;2.60;;;;;;;;;;6126904;23;19998;-70
2021/08/17 03:15:42;;;;;;;5.47;2.63;;;;;;;;;;6126277;23;20034;-69
2021/08/17 03:18:09;;;;;;;6.50;2.75;;;;;;;;;;6126676;23;20033;-69
2021/08/17 03:20:36;;;;;;;4.95;2.95;;;;;;;;;;6127202;23;20077;-69
2021/08/17 03:23:03;;;;;;;7.55;3.30;;;;;;;;;;6126310;23;20026;-69
2021/08/17 03:25:29;;;;;;;7.93;3.13;;;;;;;;;;6127161;23;19994;-69
2021/08/17 03:27:55;;;;;;;4.97;2.88;;;;;;;;;;6126125;23;20029;-68
2021/08/17 03:30:23;;;;;;;8.07;3.63;;;;;;;;;;6126874;23;20002;-70
2021/08/17 03:32:48;;;;;;;4.78;3.00;;;;;;;;;;6126493;23;20002;-71
2021/08/17 03:35:14;;;;;;;4.72;2.90;;;;;;;;;;6126753;23;20434;-68
2021/08/17 03:37:40;;;;;;;5.55;3.20;;;;;;;;;;6126878;23;20002;-69
2021/08/17 03:40:08;;;;;;;6.85;3.40;;;;;;;;;;6126705;23;20028;-70
2021/08/17 03:42:35;;;;;;;6.22;4.00;;;;;;;;;;6126780;23;20005;-70
2021/08/17 03:45:02;;;;;;;9.70;3.53;;;;;;;;;;6126130;23;19994;-70
2021/08/17 03:47:27;;;;;;;11.88;5.03;;;;;;;;;;6124799;23;20431;-71
2021/08/17 03:49:53;;;;;;;7.35;3.35;;;;;;;;;;6126313;23;20057;-70
2021/08/17 03:52:20;;;;;;;5.68;2.97;;;;;;;;;;6126755;23;20049;-70
2021/08/17 03:54:46;;;;;;;6.78;3.10;;;;;;;;;;6126590;23;20025;-70
2021/08/17 03:57:13;;;;;;;5.10;3.33;;;;;;;;;;6126686;23;20435;-69
2021/08/17 03:59:39;;;;;;;7.85;3.20;;;;;;;;;;6127091;23;20022;-71
2021/08/17 04:02:05;;;;;;;9.10;4.32;;;;;;;;;;6127516;23;20009;-70
2021/08/17 04:04:31;;;;;;;12.07;3.80;;;;;;;;;;6128470;23;20080;-69
2021/08/17 04:06:58;;;;;;;11.00;4.30;;;;;;;;;;6126944;23;20032;-70
2021/08/17 04:09:23;;;;;;;15.15;4.47;;;;;;;;;;6128435;23;20032;-69
2021/08/17 04:11:49;;;;;;;7.53;4.22;;;;;;;;;;6128382;23;19997;-70
2021/08/17 04:14:15;;;;;;;8.40;4.30;;;;;;;;;;6126421;23;20033;-69
2021/08/17 04:16:42;;;;;;;6.18;3.70;;;;;;;;;;6127875;23;20424;-69
2021/08/17 04:19:07;;;;;;;7.63;4.03;;;;;;;;;;6127957;23;19998;-70
2021/08/17 04:21:33;;;;;;;6.72;3.40;;;;;;;;;;6128625;23;20006;-70
2021/08/17 04:24:00;;;;;;;10.40;4.03;;;;;;;;;;6127779;23;20085;-69
2021/08/17 04:26:26;;;;;;;8.55;3.90;;;;;;;;;;6127860;23;20079;-70
2021/08/17 04:28:53;;;;;;;6.38;3.80;;;;;;;;;;6127940;23;19994;-69
2021/08/17 04:31:19;;;;;;;8.43;4.25;;;;;;;;;;6127851;23;20463;-70
2021/08/17 04:33:45;;;;;;;8.35;3.92;;;;;;;;;;6127962;23;20335;-70
2021/08/17 04:36:12;;;;;;;9.77;4.03;;;;;;;;;;6128510;23;20084;-70
2021/08/17 04:38:38;;;;;;;9.88;3.80;;;;;;;;;;6127915;23;20025;-69
2021/08/17 04:41:05;;;;;;;6.88;3.72;;;;;;;;;;6127868;23;19998;-69
2021/08/17 04:43:31;;;;;;;7.30;3.95;;;;;;;;;;6128340;23;20005;-68
2021/08/17 04:45:57;;;;;;;10.95;3.53;;;;;;;;;;6127958;23;20045;-70
2021/08/17 04:48:23;;;;;;;8.27;3.92;;;;;;;;;;6128808;23;20002;-69
2021/08/17 04:50:49;;;;;;;6.82;3.97;;;;;;;;;;6128034;23;19994;-69
2021/08/17 04:53:15;;;;;;;8.50;3.40;;;;;;;;;;6128061;23;20021;-69
2021/08/17 04:55:42;;;;;;;9.73;3.92;;;;;;;;;;6127790;23;20010;-69
2021/08/17 04:58:08;;;;;;;9.25;4.13;;;;;;;;;;6127929;23;20427;-69
2021/08/17 05:00:42;;;;;;;13.60;4.47;;;;;;;;;;6127835;23;20080;-69
2021/08/17 05:03:08;;;;;;;8.57;3.45;;;;;;;;;;6128000;23;20092;-69
2021/08/17 05:05:34;;;;;;;9.50;3.88;;;;;;;;;;6128098;23;20415;-69
2021/08/17 05:08:07;;;;;;;12.93;4.22;;;;;;;;;;6127800;23;19998;-69
2021/08/17 05:10:34;;;;;;;11.75;4.20;;;;;;;;;;6127419;23;20002;-70
2021/08/17 05:13:02;;;;;;;8.27;3.85;;;;;;;;;;6128005;23;20002;-71
2021/08/17 05:15:29;;;;;;;6.00;3.78;;;;;;;;;;6127540;23;20013;-70
2021/08/17 05:17:54;;;;;;;10.05;4.05;;;;;;;;;;6127531;23;19994;-70
2021/08/17 05:20:21;;;;;;;8.63;3.80;;;;;;;;;;6127953;23;20002;-70
2021/08/17 05:22:47;;;;;;;7.05;3.58;;;;;;;;;;6127376;23;19997;-70
2021/08/17 05:25:13;;;;;;;5.57;3.78;;;;;;;;;;6127698;23;19998;-70
2021/08/17 05:27:39;;;;;;;6.60;3.15;;;;;;;;;;6126023;23;20437;-69
2021/08/17 05:30:05;;;;;;;14.23;3.58;;;;;;;;;;6127312;23;19998;-70
2021/08/17 05:32:32;;;;;;;5.80;3.35;;;;;;;;;;6128130;23;20008;-70
2021/08/17 05:34:58;;;;;;;7.80;3.42;;;;;;;;;;6127220;23;19998;-70
2021/08/17 05:37:24;;;;;;;8.90;3.30;;;;;;;;;;6127347;23;20383;-70
2021/08/17 05:39:50;;;;;;;10.00;3.88;;;;;;;;;;6127254;23;20001;-70
2021/08/17 05:42:16;;;;;;;7.75;3.50;;;;;;;;;;6127275;23;19994;-69
2021/08/17 05:44:44;;;;;;;7.35;3.40;;;;;;;;;;6127383;23;20028;-70
2021/08/17 05:47:11;;;;;;;12.10;3.95;;;;;;;;;;6125842;23;19998;-70
2021/08/17 05:49:37;;;;;;;7.22;3.15;;;;;;;;;;6127657;23;19998;-70
2021/08/17 05:52:04;;;;;;;8.57;3.40;;;;;;;;;;6127063;23;20061;-70
2021/08/17 05:54:30;;;;;;;7.05;3.08;;;;;;;;;;6127258;23;20005;-69
2021/08/17 05:56:58;;;;;;;5.85;2.53;;;;;;;;;;6127136;23;19998;-70
2021/08/17 05:59:25;;;;;;;8.10;3.13;;;;;;;;;;6126736;23;20045;-72
2021/08/17 06:01:51;;;;;;;7.43;3.00;;;;;;;;;;6126708;23;19994;-72
2021/08/17 06:04:17;;;;;;;8.82;2.97;;;;;;;;;;6126251;23;20006;-72
2021/08/17 06:06:42;;;;;;;8.02;2.90;;;;;;;;;;6123989;23;19994;-71
2021/08/17 06:09:08;;;;;;;6.25;4.07;;;;;;;;;;6124183;23;20001;-71
2021/08/17 06:11:35;;;;;;;7.25;2.80;;;;;;;;;;6124316;23;20030;-73
2021/08/17 06:14:01;;;;;;;7.03;3.08;;;;;;;;;;6125441;23;20416;-72
2021/08/17 06:16:26;;;;;;;8.23;3.00;;;;;;;;;;6125942;23;19994;-71
2021/08/17 06:18:54;;;;;;;6.05;3.15;;;;;;;;;;6128943;23;20016;-71
2021/08/17 06:21:20;;;;;;;6.93;3.30;;;;;;;;;;6126331;23;20001;-73
2021/08/17 06:23:46;;;;;;;11.50;3.42;;;;;;;;;;6125770;23;19998;-71
2021/08/17 06:26:11;;;;;;;10.35;2.90;;;;;;;;;;6124176;23;20073;-71
2021/08/17 06:28:37;;;;;;;8.93;3.33;;;;;;;;;;6125201;23;20076;-72
2021/08/17 06:31:02;;;;;;;8.27;3.40;;;;;;;;;;6125031;23;20002;-69
2021/08/17 06:33:27;;;;;;;6.25;3.13;;;;;;;;;;6125473;23;20052;-70
2021/08/17 06:35:53;;;;;;;6.25;3.25;;;;;;;;;;6123494;23;20353;-68
2021/08/17 06:38:18;;;;;;;6.28;3.30;;;;;;;;;;6125556;23;19998;-68
2021/08/17 06:40:44;;;;;;;6.75;3.38;;;;;;;;;;6124729;23;20299;-69
2021/08/17 06:43:09;;;;;;;6.15;3.22;;;;;;;;;;6125253;23;20375;-69
2021/08/17 06:45:34;;;;;;;4.93;3.13;;;;;;;;;;6125907;23;20005;-68
2021/08/17 06:48:00;;;;;;;10.32;3.72;;;;;;;;;;6124295;23;20425;-67
2021/08/17 06:50:25;;;;;;;7.70;3.17;;;;;;;;;;6121828;23;20634;-69
2021/08/17 06:52:50;;;;;;;6.03;2.90;;;;;;;;;;6124057;23;20419;-68
2021/08/17 06:55:17;;;;;;;4.45;2.88;;;;;;;;;;6122865;23;20089;-71
2021/08/17 06:57:43;;;;;;;4.88;2.85;;;;;;;;;;6124655;23;20048;-67
2021/08/17 07:00:09;;;;;;;5.05;3.00;;;;;;;;;;6124253;23;20002;-67
2021/08/17 07:02:35;;;;;;;7.30;3.17;;;;;;;;;;6123920;23;19994;-67
2021/08/17 07:05:01;;;;;;;5.32;2.92;;;;;;;;;;6124861;23;20007;-68
2021/08/17 07:07:26;;;;;;;8.35;3.35;;;;;;;;;;6124605;23;20056;-67
2021/08/17 07:09:51;;;;;;;7.15;3.03;;;;;;;;;;6125335;23;19994;-67
2021/08/17 07:12:17;;;;;;;6.65;2.83;;;;;;;;;;6124590;23;19998;-69
2021/08/17 07:14:42;;;;;;;7.28;3.58;;;;;;;;;;6124816;23;20414;-67
2021/08/17 07:17:08;;;;;;;28.90;4.00;;;;;;;;;;6123888;23;20021;-71
2021/08/17 07:19:33;;;;;;;12.27;3.67;;;;;;;;;;6123471;23;20006;-68
2021/08/17 07:21:59;;;;;;;8.10;4.00;;;;;;;;;;6125174;23;20045;-71
2021/08/17 07:24:25;;;;;;;8.70;3.83;;;;;;;;;;6123172;23;19998;-70
2021/08/17 07:26:50;;;;;;;6.95;3.53;;;;;;;;;;6123215;23;20017;-71
2021/08/17 07:29:16;;;;;;;7.93;4.07;;;;;;;;;;6123570;23;20014;-72
2021/08/17 07:31:41;;;;;;;12.88;4.32;;;;;;;;;;6123859;23;20089;-70
2021/08/17 07:34:07;;;;;;;16.42;5.75;;;;;;;;;;6123266;23;20025;-70
2021/08/17 07:36:33;;;;;;;12.80;4.53;;;;;;;;;;6123835;23;20013;-69
2021/08/17 07:38:59;;;;;;;11.38;4.20;;;;;;;;;;6123126;23;20001;-69
2021/08/17 07:41:25;;;;;;;10.73;4.70;;;;;;;;;;6125779;23;20343;-69
2021/08/17 07:43:52;;;;;;;12.07;3.97;;;;;;;;;;6125375;23;20018;-71
2021/08/17 07:46:17;;;;;;;7.38;3.88;;;;;;;;;;6123562;23;20005;-69
2021/08/17 07:48:42;;;;;;;8.82;3.78;;;;;;;;;;6124704;23;20387;-72
2021/08/17 07:51:08;;;;;;;7.32;3.63;;;;;;;;;;6125204;23;20004;-69
2021/08/17 07:53:33;;;;;;;8.07;3.45;;;;;;;;;;6125104;23;20002;-66
2021/08/17 07:55:59;;;;;;;7.70;3.97;;;;;;;;;;6125205;23;20006;-69
2021/08/17 07:58:24;;;;;;;7.60;3.50;;;;;;;;;;6125701;23;20001;-70
2021/08/17 08:00:50;;;;;;;8.52;3.95;;;;;;;;;;6124570;23;19998;-71
2021/08/17 08:03:15;;;;;;;7.10;3.35;;;;;;;;;;6125258;23;20005;-70
2021/08/17 08:05:42;;;;;;;7.30;3.83;;;;;;;;;;6125224;23;20039;-71
2021/08/17 08:08:07;;;;;;;12.68;3.38;;;;;;;;;;6125240;23;20364;-70
2021/08/17 08:10:33;;;;;;;8.32;4.10;;;;;;;;;;6125466;23;20010;-69
2021/08/17 08:12:58;;;;;;;11.25;4.22;;;;;;;;;;6124959;23;19994;-72
2021/08/17 08:15:24;;;;;;;8.73;4.10;;;;;;;;;;6123663;23;20013;-70
2021/08/17 08:17:49;;;;;;;7.40;3.08;;;;;;;;;;6125383;23;20439;-70
2021/08/17 08:20:15;;;;;;;9.77;3.60;;;;;;;;;;6125244;23;20129;-70
2021/08/17 08:22:41;;;;;;;7.53;3.80;;;;;;;;;;6124599;23;20006;-71
2021/08/17 08:25:07;;;;;;;7.25;4.05;;;;;;;;;;6125094;23;20081;-66
2021/08/17 08:27:35;;;;;;;10.70;4.55;;;;;;;;;;6126714;23;20049;-70
2021/08/17 08:30:01;;;;;;;8.07;4.63;;;;;;;;;;6126668;23;20002;-70
2021/08/17 08:32:26;;;;;;;7.32;4.18;;;;;;;;;;6125520;23;20391;-70
2021/08/17 08:34:52;;;;;;;7.85;3.72;;;;;;;;;;6126383;23;20002;-71
2021/08/17 08:37:18;;;;;;;7.00;3.95;;;;;;;;;;6126798;23;20482;-69
2021/08/17 08:39:44;;;;;;;11.18;5.03;;;;;;;;;;6129951;23;20023;-69
2021/08/17 08:42:11;;;;;;;8.25;4.20;;;;;;;;;;6127490;23;20103;-69
2021/08/17 08:44:36;;;;;;;11.73;4.00;;;;;;;;;;6126655;23;20001;-69
2021/08/17 08:47:02;;;;;;;8.60;4.15;;;;;;;;;;6126592;23;20033;-69
2021/08/17 08:49:28;;;;;;;10.95;5.18;;;;;;;;;;6126615;23;19998;-67
2021/08/17 08:51:53;;;;;;;9.18;4.82;;;;;;;;;;6126176;23;20336;-66
2021/08/17 08:54:19;;;;;;;8.27;5.05;;;;;;;;;;6125929;23;19994;-66
2021/08/17 08:56:44;;;;;;;11.52;5.55;;;;;;;;;;6126126;23;19994;-64
2021/08/17 08:59:10;;;;;;;9.13;5.25;;;;;;;;;;6126376;23;20002;-67
2021/08/17 09:01:35;;;;;;;9.52;5.30;;;;;;;;;;6126324;23;20008;-66
2021/08/17 09:04:00;;;;;;;7.32;4.82;;;;;;;;;;6126444;23;20331;-70
2021/08/17 09:06:27;;;;;;;6.72;4.55;;;;;;;;;;6126292;23;20001;-70
2021/08/17 09:09:06;;;;;;;11.25;5.13;;;;;;;;;;6126747;23;20013;-70
2021/08/17 09:11:33;;;;;;;6.95;4.30;;;;;;;;;;6126885;23;19998;-70
2021/08/17 09:14:17;;;;;;;8.85;4.70;;;;;;;;;;6123022;23;20403;-68
2021/08/17 09:16:43;;;;;;;8.27;4.13;;;;;;;;;;6125234;23;20006;-68
2021/08/17 09:19:28;;;;;;;7.00;4.20;;;;;;;;;;6126065;23;20001;-68
2021/08/17 09:21:54;;;;;;;7.32;4.40;;;;;;;;;;6125851;23;20454;-68
2021/08/17 09:24:22;;;;;;;7.22;4.00;;;;;;;;;;6125991;23;20005;-66
2021/08/17 09:26:49;;;;;;;12.57;4.93;;;;;;;;;;6126077;23;20056;-67
2021/08/17 09:29:21;;;;;;;9.18;4.68;;;;;;;;;;6125820;23;19998;-68
2021/08/17 09:31:47;;;;;;;30.50;5.85;;;;;;;;;;6125833;23;20387;-69
2021/08/17 09:34:12;;;;;;;15.70;5.25;;;;;;;;;;6125766;23;20002;-68
2021/08/17 09:36:40;;;;;;;30.70;6.80;;;;;;;;;;6126320;23;20065;-69
2021/08/17 09:39:06;;;;;;;10.77;4.47;;;;;;;;;;6125930;23;19998;-69
2021/08/17 09:41:32;;;;;;;12.88;4.55;;;;;;;;;;6125835;23;20420;-68
2021/08/17 09:43:58;;;;;;;12.65;4.53;;;;;;;;;;6122882;23;20520;-67
2021/08/17 09:46:26;;;;;;;10.48;3.95;;;;;;;;;;6122447;23;20033;-69
2021/08/17 09:48:52;;;;;;;8.48;4.00;;;;;;;;;;6125973;23;19998;-68
2021/08/17 09:51:35;;;;;;;5.65;4.13;;;;;;;;;;6125145;23;20432;-68
2021/08/17 09:54:15;;;;;;;5.35;4.25;;;;;;;;;;6122267;23;20053;-72
2021/08/17 09:56:41;;;;;;;6.82;3.75;;;;;;;;;;6121837;23;20371;-71
2021/08/17 09:59:07;;;;;;;7.07;3.63;;;;;;;;;;6122166;23;19994;-71
2021/08/17 10:01:33;;;;;;;9.00;4.05;;;;;;;;;;6125871;23;20074;-70
2021/08/17 10:03:58;;;;;;;15.40;3.90;;;;;;;;;;6126296;23;20013;-71
2021/08/17 10:06:24;;;;;;;5.60;3.60;;;;;;;;;;6128826;23;20499;-71
2021/08/17 10:08:50;;;;;;;8.73;3.90;;;;;;;;;;6127024;23;20352;-70
2021/08/17 10:11:17;;;;;;;8.68;3.50;;;;;;;;;;6125631;23;20042;-69
2021/08/17 10:13:43;;;;;;;5.70;3.70;;;;;;;;;;6125105;23;19998;-72
2021/08/17 10:16:08;;;;;;;6.05;3.40;;;;;;;;;;6125619;23;20053;-70
2021/08/17 10:18:36;;;;;;;4.85;3.55;;;;;;;;;;6125539;23;19994;-70
2021/08/17 10:21:05;;;;;;;5.43;3.53;;;;;;;;;;6128638;23;20012;-70
2021/08/17 10:23:31;;;;;;;;;;;;;;;;;;6126606;23;20030;-71
2021/08/17 10:25:58;;;;;;;6.63;4.30;;;;;;;;;;6126432;23;20207;-71
2021/08/17 10:28:28;;;;;;;4.65;3.83;;;;;;;;;;6124629;23;20465;-73
2021/08/17 10:30:54;;;;;;;5.38;3.10;;;;;;;;;;6125955;23;20006;-72
2021/08/17 10:33:39;;;;;;;4.40;2.65;;;;;;;;;;6126093;23;20085;-70
2021/08/17 10:36:04;;;;;;;9.70;2.45;;;;;;;;;;6126145;23;19998;-69
2021/08/17 10:38:34;;;;;;;3.33;1.73;;;;;;;;;;6125974;23;20002;-71
2021/08/17 10:40:59;;;;;;;;;;;;;;;;;;6126960;23;19998;-70
2021/08/17 10:43:34;;;;;;;2.95;1.85;;;;;;;;;;6124762;23;20312;-69
2021/08/17 10:46:00;;;;;;;3.53;1.73;;;;;;;;;;6125484;23;20009;-71
2021/08/17 10:48:50;;;;;;;2.20;1.60;;;;;;;;;;6125941;23;19997;-71
2021/08/17 10:51:25;;;;;;;1.92;1.30;;;;;;;;;;6125979;23;20077;-69
2021/08/17 10:53:51;;;;;;;3.95;1.40;;;;;;;;;;6125904;23;20313;-70
2021/08/17 10:56:19;;;;;;;7.63;1.50;;;;;;;;;;6125953;23;20348;-70
2021/08/17 10:58:45;;;;;;;3.33;1.40;;;;;;;;;;6125923;23;20065;-73
2021/08/17 11:01:11;;;;;;;2.47;1.77;;;;;;;;;;6127528;23;20018;-73
2021/08/17 11:03:41;;;;;;;1.80;1.40;;;;;;;;;;6132438;23;20005;-72
2021/08/17 11:06:07;;;;;;;3.20;1.33;;;;;;;;;;6126296;23;20010;-73
2021/08/17 11:08:33;;;;;;;4.50;1.30;;;;;;;;;;6125551;23;20006;-72
2021/08/17 11:10:59;;;;;;;1.77;1.38;;;;;;;;;;6126246;23;19998;-73
2021/08/17 11:13:25;;;;;;;2.70;1.35;;;;;;;;;;6125609;23;20008;-72
2021/08/17 11:16:10;;;;;;;2.42;1.42;;;;;;;;;;6126055;23;19998;-71
2021/08/17 11:18:49;;;;;;;3.70;1.33;;;;;;;;;;6125988;23;19998;-70
2021/08/17 11:21:35;;;;;;;3.83;1.50;;;;;;;;;;6125786;23;20005;-70
2021/08/17 11:24:19;;;;;;;4.47;1.55;;;;;;;;;;6125928;23;20442;-71
2021/08/17 11:27:03;;;;;;;3.45;2.03;;;;;;;;;;6125400;23;20033;-71
2021/08/17 11:29:33;;;;;;;2.63;1.35;;;;;;;;;;6124528;23;20002;-70
2021/08/17 11:32:00;;;;;;;2.25;1.30;;;;;;;;;;6125660;23;20077;-70
2021/08/17 11:34:27;;;;;;;2.28;1.30;;;;;;;;;;6125784;23;20002;-70
2021/08/17 11:36:54;;;;;;;3.38;1.50;;;;;;;;;;6125999;23;20049;-71
2021/08/17 11:39:22;;;;;;;2.72;1.30;;;;;;;;;;6125943;23;20279;-69
2021/08/17 11:41:47;;;;;;;4.53;1.30;;;;;;;;;;6125587;23;20001;-71
2021/08/17 11:44:13;;;;;;;3.40;1.40;;;;;;;;;;6126063;23;20356;-71
2021/08/17 11:46:39;;;;;;;2.80;1.40;;;;;;;;;;6124527;23;20048;-70
2021/08/17 11:49:23;;;;;;;8.25;1.30;;;;;;;;;;6125341;23;19994;-69
2021/08/17 11:52:03;;;;;;;2.92;1.70;;;;;;;;;;6124868;23;19998;-70
2021/08/17 11:54:28;;;;;;;2.67;1.50;;;;;;;;;;6126016;23;20010;-70
2021/08/17 11:56:59;;;;;;;9.18;1.52;;;;;;;;;;6124354;23;20434;-70
2021/08/17 11:59:25;;;;;;;4.65;1.70;;;;;;;;;;6125847;23;19998;-70
2021/08/17 12:01:58;;;;;;;3.45;1.55;;;;;;;;;;6125088;23;20438;-70
2021/08/17 12:04:23;;;;;;;2.95;1.30;;;;;;;;;;6125318;23;20029;-70
2021/08/17 12:07:08;;;;;;;2.47;1.52;;;;;;;;;;6123929;23;19998;-70
2021/08/17 12:09:35;;;;;;;4.78;1.50;;;;;;;;;;6124932;23;20009;-69
2021/08/17 12:12:00;;;;;;;3.17;1.50;;;;;;;;;;6125522;23;20451;-69
2021/08/17 12:14:26;;;;;;;5.72;2.03;;;;;;;;;;6125594;23;20002;-71
2021/08/17 12:16:53;;;;;;;3.08;1.70;;;;;;;;;;6125069;23;19994;-70
2021/08/17 12:19:18;;;;;;;4.55;1.60;;;;;;;;;;6125732;23;20069;-70
2021/08/17 12:21:44;;;;;;;2.85;1.60;;;;;;;;;;6124535;23;20022;-70
2021/08/17 12:24:10;;;;;;;7.60;1.88;;;;;;;;;;6126586;23;20327;-72
2021/08/17 12:26:35;;;;;;;4.95;1.80;;;;;;;;;;6127603;23;20073;-72
2021/08/17 12:29:18;;;;;;;3.88;1.45;;;;;;;;;;6127612;23;19998;-71
2021/08/17 12:31:44;;;;;;;5.78;1.52;;;;;;;;;;6127034;23;20331;-71
2021/08/17 12:34:10;;;;;;;5.00;1.83;;;;;;;;;;6127373;23;20005;-70
2021/08/17 12:36:47;;;;;;;6.63;2.70;;;;;;;;;;6127142;23;20272;-71
2021/08/17 12:39:28;;;;;;;5.45;2.13;;;;;;;;;;6126072;23;20005;-71
2021/08/17 12:41:55;;;;;;;3.67;1.85;;;;;;;;;;6127258;23;20061;-71
2021/08/17 12:44:25;;;;;;;5.88;1.60;;;;;;;;;;6124157;23;19998;-70
2021/08/17 12:46:57;;;;;;;4.55;1.58;;;;;;;;;;6118638;23;20004;-73
2021/08/17 12:49:23;;;;;;;3.28;1.60;;;;;;;;;;6119801;23;20443;-71
2021/08/17 12:51:49;;;;;;;4.95;2.40;;;;;;;;;;6123601;23;20004;-72
2021/08/17 12:54:15;;;;;;;3.67;1.50;;;;;;;;;;6126598;23;20026;-70
2021/08/17 12:56:40;;;;;;;3.95;1.88;;;;;;;;;;6126706;23;20334;-71
2021/08/17 12:59:05;;;;;;;5.40;1.65;;;;;;;;;;6126900;23;20001;-70
2021/08/17 13:01:31;;;;;;;4.82;1.67;;;;;;;;;;6126579;23;19994;-70
2021/08/17 13:03:57;;;;;;;6.30;1.70;;;;;;;;;;6127161;23;19994;-71
2021/08/17 13:06:23;;;;;;;4.03;1.45;;;;;;;;;;6126389;23;20492;-71
2021/08/17 13:08:49;;;;;;;3.75;1.80;;;;;;;;;;6126427;23;20013;-71
2021/08/17 13:11:15;;;;;;;2.58;1.40;;;;;;;;;;6126396;23;20032;-71
2021/08/17 13:13:41;;;;;;;3.03;1.75;;;;;;;;;;6125816;23;20393;-70
2021/08/17 13:16:06;;;;;;;5.65;1.60;;;;;;;;;;6124485;23;20010;-74
2021/08/17 13:18:32;;;;;;;7.72;1.90;;;;;;;;;;6124951;23;20005;-72
2021/08/17 13:20:59;;;;;;;4.22;1.60;;;;;;;;;;6123649;23;20002;-64
2021/08/17 13:23:25;;;;;;;4.20;1.80;;;;;;;;;;6132558;23;20004;-70
2021/08/17 13:25:50;;;;;;;6.10;1.77;;;;;;;;;;6128627;23;20420;-70
2021/08/17 13:28:16;;;;;;;4.93;1.88;;;;;;;;;;6122146;23;20025;-75
2021/08/17 13:30:41;;;;;;;3.85;1.70;;;;;;;;;;6125738;23;20420;-73
2021/08/17 13:33:09;;;;;;;4.47;1.80;;;;;;;;;;6126679;23;20486;-74
2021/08/17 13:35:37;;;;;;;5.97;1.80;;;;;;;;;;6126444;23;20002;-72
2021/08/17 13:38:03;;;;;;;4.20;1.83;;;;;;;;;;6126942;23;19998;-75
2021/08/17 13:40:29;;;;;;;3.97;1.83;;;;;;;;;;6126647;23;20045;-70
2021/08/17 13:42:57;;;;;;;2.80;1.50;;;;;;;;;;6124635;23;20002;-70
2021/08/17 13:45:23;;;;;;;3.45;1.90;;;;;;;;;;6126058;23;20005;-71
2021/08/17 13:47:49;;;;;;;4.53;1.80;;;;;;;;;;6125300;23;20001;-71
2021/08/17 13:50:15;;;;;;;2.67;1.45;;;;;;;;;;6125779;23;19997;-71
2021/08/17 13:52:41;;;;;;;4.03;1.95;;;;;;;;;;6126156;23;20482;-69
2021/08/17 13:55:07;;;;;;;5.07;1.77;;;;;;;;;;6125593;23;20370;-70
2021/08/17 13:57:33;;;;;;;6.50;1.92;;;;;;;;;;6125134;23;20008;-69
2021/08/17 13:59:58;;;;;;;5.53;1.90;;;;;;;;;;6125373;23;20002;-71
2021/08/17 14:02:24;;;;;;;3.85;1.92;;;;;;;;;;6125730;23;19994;-73
2021/08/17 14:04:49;;;;;;;3.40;1.65;;;;;;;;;;6125978;23;20070;-74
2021/08/17 14:07:14;;;;;;;4.78;1.90;;;;;;;;;;6125836;23;20080;-74
2021/08/17 14:09:40;;;;;;;5.32;1.95;;;;;;;;;;6125249;23;19998;-74
2021/08/17 14:12:06;;;;;;;3.80;2.13;;;;;;;;;;6125583;23;20334;-74
2021/08/17 14:14:31;;;;;;;7.32;2.22;;;;;;;;;;6125787;23;20005;-75
2021/08/17 14:16:56;;;;;;;7.10;2.30;;;;;;;;;;6126147;23;20411;-75
2021/08/17 14:19:22;;;;;;;11.95;2.20;;;;;;;;;;6126364;23;19994;-74
2021/08/17 14:21:47;;;;;;;4.75;2.53;;;;;;;;;;6126182;23;19994;-74
2021/08/17 14:24:13;;;;;;;6.32;2.00;;;;;;;;;;6126369;23;20486;-73
2021/08/17 14:26:39;;;;;;;5.43;2.28;;;;;;;;;;6125865;23;20008;-73
2021/08/17 14:29:05;;;;;;;4.38;1.90;;;;;;;;;;6123638;23;20017;-74
2021/08/17 14:31:33;;;;;;;4.50;1.70;;;;;;;;;;6124626;23;20002;-66
2021/08/17 14:33:59;;;;;;;4.03;1.92;;;;;;;;;;6126120;23;20327;-66
2021/08/17 14:36:25;;;;;;;5.03;2.00;;;;;;;;;;6126784;23;19998;-66
2021/08/17 14:38:51;;;;;;;4.70;2.10;;;;;;;;;;6126488;23;19994;-66
2021/08/17 14:41:17;;;;;;;6.05;1.83;;;;;;;;;;6126742;23;19998;-66